sensor_id;sensor_type;location;lat;lon;timestamp;P1;durP1;ratioP1;P2;durP2;ratioP2
26951;SDS011;14507;52.418;13.398;2022-11-21T00:01:53;41.97;;;21.13;;
26951;SDS011;14507;52.418;13.398;2022-11-21T00:04:18;40.88;;;21.33;;
26951;SDS011;14507;52.418;13.398;2022-11-21T00:06:44;43.80;;;21.40;;
26951;SDS011;14507;52.418;13.398;2022-11-21T00:09:10;49.17;;;22.05;;
26951;SDS011;14507;52.418;13.398;2022-11-21T00:11:35;41.65;;;20.85;;
26951;SDS011;14507;52.418;13.398;2022-11-21T00:14:01;41.50;;;21.55;;
26951;SDS011;14507;52.418;13.398;2022-11-21T00:16:27;44.15;;;21.33;;
26951;SDS011;14507;52.418;13.398;2022-11-21T00:18:52;40.47;;;21.52;;
26951;SDS011;14507;52.418;13.398;2022-11-21T00:21:18;43.13;;;20.65;;
26951;SDS011;14507;52.418;13.398;2022-11-21T00:23:45;42.95;;;21.00;;
26951;SDS011;14507;52.418;13.398;2022-11-21T00:26:12;41.25;;;20.35;;
26951;SDS011;14507;52.418;13.398;2022-11-21T00:28:38;41.45;;;19.48;;
26951;SDS011;14507;52.418;13.398;2022-11-21T00:31:05;40.70;;;20.30;;
26951;SDS011;14507;52.418;13.398;2022-11-21T00:33:33;43.63;;;21.00;;
26951;SDS011;14507;52.418;13.398;2022-11-21T00:36:09;42.70;;;20.42;;
26951;SDS011;14507;52.418;13.398;2022-11-21T00:38:35;42.03;;;19.85;;
26951;SDS011;14507;52.418;13.398;2022-11-21T00:41:01;41.55;;;21.38;;
26951;SDS011;14507;52.418;13.398;2022-11-21T00:43:27;38.78;;;19.02;;
26951;SDS011;14507;52.418;13.398;2022-11-21T00:45:52;42.10;;;21.95;;
26951;SDS011;14507;52.418;13.398;2022-11-21T00:48:18;43.33;;;20.90;;
26951;SDS011;14507;52.418;13.398;2022-11-21T00:50:46;40.63;;;19.90;;
26951;SDS011;14507;52.418;13.398;2022-11-21T00:53:13;44.45;;;20.70;;
26951;SDS011;14507;52.418;13.398;2022-11-21T00:55:38;46.70;;;21.23;;
26951;SDS011;14507;52.418;13.398;2022-11-21T00:58:04;41.85;;;21.42;;
26951;SDS011;14507;52.418;13.398;2022-11-21T01:00:30;44.85;;;20.17;;
26951;SDS011;14507;52.418;13.398;2022-11-21T01:02:55;40.30;;;19.63;;
26951;SDS011;14507;52.418;13.398;2022-11-21T01:05:21;40.55;;;20.17;;
26951;SDS011;14507;52.418;13.398;2022-11-21T01:07:47;40.22;;;19.90;;
26951;SDS011;14507;52.418;13.398;2022-11-21T01:10:13;46.00;;;21.02;;
26951;SDS011;14507;52.418;13.398;2022-11-21T01:12:39;44.60;;;21.65;;
26951;SDS011;14507;52.418;13.398;2022-11-21T01:15:04;42.60;;;20.23;;
26951;SDS011;14507;52.418;13.398;2022-11-21T01:17:31;37.05;;;19.58;;
26951;SDS011;14507;52.418;13.398;2022-11-21T01:19:57;39.63;;;20.15;;
26951;SDS011;14507;52.418;13.398;2022-11-21T01:22:23;42.38;;;20.98;;
26951;SDS011;14507;52.418;13.398;2022-11-21T01:24:48;41.63;;;20.48;;
26951;SDS011;14507;52.418;13.398;2022-11-21T01:27:14;41.72;;;20.50;;
26951;SDS011;14507;52.418;13.398;2022-11-21T01:29:40;39.17;;;19.15;;
26951;SDS011;14507;52.418;13.398;2022-11-21T01:32:06;40.78;;;20.33;;
26951;SDS011;14507;52.418;13.398;2022-11-21T01:34:32;38.72;;;20.00;;
26951;SDS011;14507;52.418;13.398;2022-11-21T01:36:58;43.40;;;21.08;;
26951;SDS011;14507;52.418;13.398;2022-11-21T01:39:25;40.93;;;20.63;;
26951;SDS011;14507;52.418;13.398;2022-11-21T01:41:51;37.08;;;19.67;;
26951;SDS011;14507;52.418;13.398;2022-11-21T01:44:17;42.72;;;20.40;;
26951;SDS011;14507;52.418;13.398;2022-11-21T01:46:45;41.78;;;20.45;;
26951;SDS011;14507;52.418;13.398;2022-11-21T01:49:22;41.22;;;20.33;;
26951;SDS011;14507;52.418;13.398;2022-11-21T01:54:26;41.58;;;20.85;;
26951;SDS011;14507;52.418;13.398;2022-11-21T01:57:18;40.55;;;19.73;;
26951;SDS011;14507;52.418;13.398;2022-11-21T02:00:23;36.78;;;19.58;;
26951;SDS011;14507;52.418;13.398;2022-11-21T02:02:55;40.15;;;19.98;;
26951;SDS011;14507;52.418;13.398;2022-11-21T02:05:25;42.63;;;20.55;;
26951;SDS011;14507;52.418;13.398;2022-11-21T02:07:57;41.50;;;19.75;;
26951;SDS011;14507;52.418;13.398;2022-11-21T02:10:27;46.88;;;22.20;;
26951;SDS011;14507;52.418;13.398;2022-11-21T02:12:54;45.08;;;21.38;;
26951;SDS011;14507;52.418;13.398;2022-11-21T02:15:23;40.90;;;21.25;;
26951;SDS011;14507;52.418;13.398;2022-11-21T02:17:51;44.33;;;21.60;;
26951;SDS011;14507;52.418;13.398;2022-11-21T02:20:18;42.13;;;20.65;;
26951;SDS011;14507;52.418;13.398;2022-11-21T02:23:09;45.58;;;20.63;;
26951;SDS011;14507;52.418;13.398;2022-11-21T02:25:45;46.00;;;21.40;;
26951;SDS011;14507;52.418;13.398;2022-11-21T02:28:12;41.10;;;19.88;;
26951;SDS011;14507;52.418;13.398;2022-11-21T02:30:41;45.33;;;20.95;;
26951;SDS011;14507;52.418;13.398;2022-11-21T02:33:07;41.92;;;21.45;;
26951;SDS011;14507;52.418;13.398;2022-11-21T02:35:34;43.95;;;21.67;;
26951;SDS011;14507;52.418;13.398;2022-11-21T02:38:01;44.88;;;21.88;;
26951;SDS011;14507;52.418;13.398;2022-11-21T02:40:32;47.50;;;21.63;;
26951;SDS011;14507;52.418;13.398;2022-11-21T02:43:03;45.05;;;21.40;;
26951;SDS011;14507;52.418;13.398;2022-11-21T02:45:48;42.20;;;22.27;;
26951;SDS011;14507;52.418;13.398;2022-11-21T02:48:14;46.20;;;21.10;;
26951;SDS011;14507;52.418;13.398;2022-11-21T02:50:40;48.95;;;21.48;;
26951;SDS011;14507;52.418;13.398;2022-11-21T02:55:35;41.07;;;20.33;;
26951;SDS011;14507;52.418;13.398;2022-11-21T02:58:02;43.00;;;20.25;;
26951;SDS011;14507;52.418;13.398;2022-11-21T03:00:28;43.30;;;19.88;;
26951;SDS011;14507;52.418;13.398;2022-11-21T03:02:53;41.75;;;21.05;;
26951;SDS011;14507;52.418;13.398;2022-11-21T03:05:20;43.83;;;20.73;;
26951;SDS011;14507;52.418;13.398;2022-11-21T03:07:46;41.75;;;20.38;;
26951;SDS011;14507;52.418;13.398;2022-11-21T03:10:13;42.10;;;21.10;;
26951;SDS011;14507;52.418;13.398;2022-11-21T03:12:39;44.50;;;20.90;;
26951;SDS011;14507;52.418;13.398;2022-11-21T03:15:06;44.35;;;21.60;;
26951;SDS011;14507;52.418;13.398;2022-11-21T03:17:33;49.53;;;22.45;;
26951;SDS011;14507;52.418;13.398;2022-11-21T03:19:59;43.28;;;22.08;;
26951;SDS011;14507;52.418;13.398;2022-11-21T03:22:25;41.85;;;20.63;;
26951;SDS011;14507;52.418;13.398;2022-11-21T03:24:51;45.53;;;21.73;;
26951;SDS011;14507;52.418;13.398;2022-11-21T03:27:17;45.90;;;20.85;;
26951;SDS011;14507;52.418;13.398;2022-11-21T03:29:42;43.97;;;20.77;;
26951;SDS011;14507;52.418;13.398;2022-11-21T03:32:08;45.50;;;22.13;;
26951;SDS011;14507;52.418;13.398;2022-11-21T03:34:34;41.17;;;20.60;;
26951;SDS011;14507;52.418;13.398;2022-11-21T03:37:00;47.55;;;21.80;;
26951;SDS011;14507;52.418;13.398;2022-11-21T03:39:25;46.97;;;22.65;;
26951;SDS011;14507;52.418;13.398;2022-11-21T03:41:51;45.90;;;22.98;;
26951;SDS011;14507;52.418;13.398;2022-11-21T03:44:17;47.17;;;22.05;;
26951;SDS011;14507;52.418;13.398;2022-11-21T03:46:43;44.05;;;21.55;;
26951;SDS011;14507;52.418;13.398;2022-11-21T03:49:10;48.30;;;22.65;;
26951;SDS011;14507;52.418;13.398;2022-11-21T03:51:37;48.45;;;21.10;;
26951;SDS011;14507;52.418;13.398;2022-11-21T03:54:03;46.53;;;21.25;;
26951;SDS011;14507;52.418;13.398;2022-11-21T03:56:30;45.83;;;22.83;;
26951;SDS011;14507;52.418;13.398;2022-11-21T03:58:56;46.70;;;22.67;;
26951;SDS011;14507;52.418;13.398;2022-11-21T04:01:22;44.97;;;22.55;;
26951;SDS011;14507;52.418;13.398;2022-11-21T04:03:48;43.10;;;21.88;;
26951;SDS011;14507;52.418;13.398;2022-11-21T04:06:15;45.22;;;21.48;;
26951;SDS011;14507;52.418;13.398;2022-11-21T04:08:42;46.42;;;22.77;;
26951;SDS011;14507;52.418;13.398;2022-11-21T04:11:08;44.13;;;21.75;;
26951;SDS011;14507;52.418;13.398;2022-11-21T04:13:34;48.97;;;22.85;;
26951;SDS011;14507;52.418;13.398;2022-11-21T04:16:00;48.83;;;23.15;;
26951;SDS011;14507;52.418;13.398;2022-11-21T04:18:26;49.38;;;22.60;;
26951;SDS011;14507;52.418;13.398;2022-11-21T04:20:55;51.38;;;22.98;;
26951;SDS011;14507;52.418;13.398;2022-11-21T04:23:22;44.45;;;22.15;;
26951;SDS011;14507;52.418;13.398;2022-11-21T04:25:47;49.63;;;22.50;;
26951;SDS011;14507;52.418;13.398;2022-11-21T04:28:13;44.13;;;22.25;;
26951;SDS011;14507;52.418;13.398;2022-11-21T04:30:39;53.10;;;23.77;;
26951;SDS011;14507;52.418;13.398;2022-11-21T04:33:05;48.72;;;22.38;;
26951;SDS011;14507;52.418;13.398;2022-11-21T04:35:30;48.28;;;22.02;;
26951;SDS011;14507;52.418;13.398;2022-11-21T04:37:56;44.85;;;22.40;;
26951;SDS011;14507;52.418;13.398;2022-11-21T04:40:21;46.53;;;22.70;;
26951;SDS011;14507;52.418;13.398;2022-11-21T04:42:47;51.20;;;23.95;;
26951;SDS011;14507;52.418;13.398;2022-11-21T04:45:13;46.08;;;21.98;;
26951;SDS011;14507;52.418;13.398;2022-11-21T04:47:41;42.55;;;21.65;;
26951;SDS011;14507;52.418;13.398;2022-11-21T04:50:09;45.20;;;22.13;;
26951;SDS011;14507;52.418;13.398;2022-11-21T04:52:37;46.78;;;21.85;;
26951;SDS011;14507;52.418;13.398;2022-11-21T04:55:03;49.88;;;23.23;;
26951;SDS011;14507;52.418;13.398;2022-11-21T04:57:29;42.05;;;21.05;;
26951;SDS011;14507;52.418;13.398;2022-11-21T04:59:56;48.53;;;22.27;;
26951;SDS011;14507;52.418;13.398;2022-11-21T05:02:22;43.35;;;21.55;;
26951;SDS011;14507;52.418;13.398;2022-11-21T05:04:48;46.25;;;22.48;;
26951;SDS011;14507;52.418;13.398;2022-11-21T05:07:14;47.50;;;23.45;;
26951;SDS011;14507;52.418;13.398;2022-11-21T05:09:40;47.22;;;22.80;;
26951;SDS011;14507;52.418;13.398;2022-11-21T05:12:08;43.42;;;21.42;;
26951;SDS011;14507;52.418;13.398;2022-11-21T05:14:53;47.43;;;23.17;;
26951;SDS011;14507;52.418;13.398;2022-11-21T05:17:19;47.78;;;22.70;;
26951;SDS011;14507;52.418;13.398;2022-11-21T05:19:45;42.42;;;21.55;;
26951;SDS011;14507;52.418;13.398;2022-11-21T05:22:10;44.70;;;22.33;;
26951;SDS011;14507;52.418;13.398;2022-11-21T05:24:36;45.97;;;21.75;;
26951;SDS011;14507;52.418;13.398;2022-11-21T05:27:02;45.85;;;22.10;;
26951;SDS011;14507;52.418;13.398;2022-11-21T05:29:28;39.58;;;20.83;;
26951;SDS011;14507;52.418;13.398;2022-11-21T05:31:54;42.60;;;21.83;;
26951;SDS011;14507;52.418;13.398;2022-11-21T05:34:20;44.30;;;21.55;;
26951;SDS011;14507;52.418;13.398;2022-11-21T05:36:45;46.90;;;22.05;;
26951;SDS011;14507;52.418;13.398;2022-11-21T05:39:11;43.28;;;21.95;;
26951;SDS011;14507;52.418;13.398;2022-11-21T05:41:37;44.38;;;21.52;;
26951;SDS011;14507;52.418;13.398;2022-11-21T05:44:02;47.80;;;23.52;;
26951;SDS011;14507;52.418;13.398;2022-11-21T05:46:28;50.80;;;22.73;;
26951;SDS011;14507;52.418;13.398;2022-11-21T05:48:54;51.67;;;24.83;;
26951;SDS011;14507;52.418;13.398;2022-11-21T05:51:20;46.95;;;22.63;;
26951;SDS011;14507;52.418;13.398;2022-11-21T05:53:46;44.28;;;22.67;;
26951;SDS011;14507;52.418;13.398;2022-11-21T05:56:13;47.90;;;23.92;;
26951;SDS011;14507;52.418;13.398;2022-11-21T06:01:07;51.17;;;23.10;;
26951;SDS011;14507;52.418;13.398;2022-11-21T06:06:03;55.13;;;25.05;;
26951;SDS011;14507;52.418;13.398;2022-11-21T06:08:43;50.83;;;24.50;;
26951;SDS011;14507;52.418;13.398;2022-11-21T06:11:11;47.28;;;22.83;;
26951;SDS011;14507;52.418;13.398;2022-11-21T06:13:38;48.88;;;23.80;;
26951;SDS011;14507;52.418;13.398;2022-11-21T06:18:32;50.40;;;24.98;;
26951;SDS011;14507;52.418;13.398;2022-11-21T06:21:00;46.67;;;22.38;;
26951;SDS011;14507;52.418;13.398;2022-11-21T06:23:27;50.03;;;24.48;;
26951;SDS011;14507;52.418;13.398;2022-11-21T06:25:57;46.53;;;22.75;;
26951;SDS011;14507;52.418;13.398;2022-11-21T06:28:25;49.40;;;23.13;;
26951;SDS011;14507;52.418;13.398;2022-11-21T06:30:51;47.28;;;23.80;;
26951;SDS011;14507;52.418;13.398;2022-11-21T06:33:17;49.28;;;23.45;;
26951;SDS011;14507;52.418;13.398;2022-11-21T06:35:44;48.65;;;24.00;;
26951;SDS011;14507;52.418;13.398;2022-11-21T06:38:10;49.47;;;24.13;;
26951;SDS011;14507;52.418;13.398;2022-11-21T06:40:38;53.05;;;25.05;;
26951;SDS011;14507;52.418;13.398;2022-11-21T06:43:04;52.40;;;25.33;;
26951;SDS011;14507;52.418;13.398;2022-11-21T06:45:30;53.55;;;24.63;;
26951;SDS011;14507;52.418;13.398;2022-11-21T06:47:56;53.22;;;25.35;;
26951;SDS011;14507;52.418;13.398;2022-11-21T06:50:25;51.63;;;24.73;;
26951;SDS011;14507;52.418;13.398;2022-11-21T06:52:50;52.03;;;24.70;;
26951;SDS011;14507;52.418;13.398;2022-11-21T06:55:16;54.38;;;24.42;;
26951;SDS011;14507;52.418;13.398;2022-11-21T06:57:44;52.78;;;24.77;;
26951;SDS011;14507;52.418;13.398;2022-11-21T07:00:10;54.47;;;25.52;;
26951;SDS011;14507;52.418;13.398;2022-11-21T07:02:37;54.83;;;24.95;;
26951;SDS011;14507;52.418;13.398;2022-11-21T07:05:02;54.63;;;24.90;;
26951;SDS011;14507;52.418;13.398;2022-11-21T07:07:28;53.65;;;24.85;;
26951;SDS011;14507;52.418;13.398;2022-11-21T07:09:54;53.42;;;26.13;;
26951;SDS011;14507;52.418;13.398;2022-11-21T07:12:20;52.95;;;26.02;;
26951;SDS011;14507;52.418;13.398;2022-11-21T07:15:04;51.13;;;25.73;;
26951;SDS011;14507;52.418;13.398;2022-11-21T07:17:30;54.00;;;26.75;;
26951;SDS011;14507;52.418;13.398;2022-11-21T07:19:56;53.20;;;26.75;;
26951;SDS011;14507;52.418;13.398;2022-11-21T07:22:21;53.05;;;24.52;;
26951;SDS011;14507;52.418;13.398;2022-11-21T07:24:47;55.65;;;26.55;;
26951;SDS011;14507;52.418;13.398;2022-11-21T07:27:13;50.28;;;25.55;;
26951;SDS011;14507;52.418;13.398;2022-11-21T07:29:41;59.40;;;27.88;;
26951;SDS011;14507;52.418;13.398;2022-11-21T07:32:10;55.38;;;27.42;;
26951;SDS011;14507;52.418;13.398;2022-11-21T07:34:36;57.30;;;28.73;;
26951;SDS011;14507;52.418;13.398;2022-11-21T07:37:02;59.28;;;27.80;;
26951;SDS011;14507;52.418;13.398;2022-11-21T07:39:34;52.50;;;25.73;;
26951;SDS011;14507;52.418;13.398;2022-11-21T07:41:59;52.20;;;25.73;;
26951;SDS011;14507;52.418;13.398;2022-11-21T07:44:25;56.22;;;26.30;;
26951;SDS011;14507;52.418;13.398;2022-11-21T07:46:54;51.95;;;25.55;;
26951;SDS011;14507;52.418;13.398;2022-11-21T07:49:20;55.10;;;25.88;;
26951;SDS011;14507;52.418;13.398;2022-11-21T07:51:46;52.78;;;25.85;;
26951;SDS011;14507;52.418;13.398;2022-11-21T07:54:12;48.05;;;25.00;;
26951;SDS011;14507;52.418;13.398;2022-11-21T07:56:43;48.17;;;24.17;;
26951;SDS011;14507;52.418;13.398;2022-11-21T07:59:09;50.17;;;24.73;;
26951;SDS011;14507;52.418;13.398;2022-11-21T08:01:35;55.35;;;26.08;;
26951;SDS011;14507;52.418;13.398;2022-11-21T08:04:00;47.85;;;23.15;;
26951;SDS011;14507;52.418;13.398;2022-11-21T08:06:26;52.28;;;24.77;;
26951;SDS011;14507;52.418;13.398;2022-11-21T08:08:52;52.63;;;25.73;;
26951;SDS011;14507;52.418;13.398;2022-11-21T08:11:18;53.90;;;26.70;;
26951;SDS011;14507;52.418;13.398;2022-11-21T08:13:45;57.33;;;26.58;;
26951;SDS011;14507;52.418;13.398;2022-11-21T08:16:11;62.17;;;28.80;;
26951;SDS011;14507;52.418;13.398;2022-11-21T08:18:36;56.97;;;29.15;;
26951;SDS011;14507;52.418;13.398;2022-11-21T08:21:02;57.17;;;27.40;;
26951;SDS011;14507;52.418;13.398;2022-11-21T08:23:29;68.88;;;32.10;;
26951;SDS011;14507;52.418;13.398;2022-11-21T08:25:55;58.38;;;27.77;;
26951;SDS011;14507;52.418;13.398;2022-11-21T08:28:21;60.03;;;29.63;;
26951;SDS011;14507;52.418;13.398;2022-11-21T08:30:47;64.50;;;29.75;;
26951;SDS011;14507;52.418;13.398;2022-11-21T08:33:12;62.08;;;28.60;;
26951;SDS011;14507;52.418;13.398;2022-11-21T08:35:38;62.85;;;29.15;;
26951;SDS011;14507;52.418;13.398;2022-11-21T08:38:04;59.50;;;28.58;;
26951;SDS011;14507;52.418;13.398;2022-11-21T08:40:30;61.83;;;30.33;;
26951;SDS011;14507;52.418;13.398;2022-11-21T08:42:57;58.85;;;29.23;;
26951;SDS011;14507;52.418;13.398;2022-11-21T08:45:23;61.70;;;28.88;;
26951;SDS011;14507;52.418;13.398;2022-11-21T08:47:50;53.35;;;26.52;;
26951;SDS011;14507;52.418;13.398;2022-11-21T08:50:16;54.45;;;26.23;;
26951;SDS011;14507;52.418;13.398;2022-11-21T08:52:41;48.85;;;24.55;;
26951;SDS011;14507;52.418;13.398;2022-11-21T08:55:07;42.88;;;22.30;;
26951;SDS011;14507;52.418;13.398;2022-11-21T08:57:37;45.95;;;22.25;;
26951;SDS011;14507;52.418;13.398;2022-11-21T09:00:03;49.20;;;24.17;;
26951;SDS011;14507;52.418;13.398;2022-11-21T09:02:30;47.85;;;24.33;;
26951;SDS011;14507;52.418;13.398;2022-11-21T09:04:55;53.53;;;25.27;;
26951;SDS011;14507;52.418;13.398;2022-11-21T09:07:21;50.42;;;24.05;;
26951;SDS011;14507;52.418;13.398;2022-11-21T09:09:47;46.90;;;23.25;;
26951;SDS011;14507;52.418;13.398;2022-11-21T09:12:12;48.83;;;24.23;;
26951;SDS011;14507;52.418;13.398;2022-11-21T09:14:38;47.60;;;23.80;;
26951;SDS011;14507;52.418;13.398;2022-11-21T09:17:22;47.95;;;21.90;;
26951;SDS011;14507;52.418;13.398;2022-11-21T09:20:07;42.17;;;21.38;;
26951;SDS011;14507;52.418;13.398;2022-11-21T09:22:33;45.00;;;21.73;;
26951;SDS011;14507;52.418;13.398;2022-11-21T09:24:58;43.75;;;22.17;;
26951;SDS011;14507;52.418;13.398;2022-11-21T09:27:24;47.95;;;22.90;;
26951;SDS011;14507;52.418;13.398;2022-11-21T09:29:50;44.50;;;21.58;;
26951;SDS011;14507;52.418;13.398;2022-11-21T09:32:16;48.05;;;21.92;;
26951;SDS011;14507;52.418;13.398;2022-11-21T09:34:41;46.72;;;22.52;;
26951;SDS011;14507;52.418;13.398;2022-11-21T09:37:07;45.97;;;21.58;;
26951;SDS011;14507;52.418;13.398;2022-11-21T09:39:33;43.70;;;22.15;;
26951;SDS011;14507;52.418;13.398;2022-11-21T09:42:08;46.10;;;22.80;;
26951;SDS011;14507;52.418;13.398;2022-11-21T09:47:46;43.38;;;19.80;;
26951;SDS011;14507;52.418;13.398;2022-11-21T09:52:45;43.42;;;20.23;;
26951;SDS011;14507;52.418;13.398;2022-11-21T09:58:15;39.35;;;19.45;;
26951;SDS011;14507;52.418;13.398;2022-11-21T10:01:02;39.25;;;18.70;;
26951;SDS011;14507;52.418;13.398;2022-11-21T10:03:29;33.22;;;16.67;;
26951;SDS011;14507;52.418;13.398;2022-11-21T10:06:10;34.25;;;16.00;;
26951;SDS011;14507;52.418;13.398;2022-11-21T10:20:14;31.83;;;15.88;;
26951;SDS011;14507;52.418;13.398;2022-11-21T10:25:24;37.50;;;17.95;;
26951;SDS011;14507;52.418;13.398;2022-11-21T10:27:55;39.38;;;18.00;;
26951;SDS011;14507;52.418;13.398;2022-11-21T10:30:26;39.80;;;18.83;;
26951;SDS011;14507;52.418;13.398;2022-11-21T10:32:55;42.25;;;19.40;;
26951;SDS011;14507;52.418;13.398;2022-11-21T10:35:28;42.53;;;19.13;;
26951;SDS011;14507;52.418;13.398;2022-11-21T10:38:25;43.00;;;19.60;;
26951;SDS011;14507;52.418;13.398;2022-11-21T10:41:02;42.97;;;19.38;;
26951;SDS011;14507;52.418;13.398;2022-11-21T10:46:36;39.75;;;18.98;;
26951;SDS011;14507;52.418;13.398;2022-11-21T10:49:02;38.42;;;18.73;;
26951;SDS011;14507;52.418;13.398;2022-11-21T10:51:44;35.90;;;16.77;;
26951;SDS011;14507;52.418;13.398;2022-11-21T10:54:20;30.27;;;14.75;;
26951;SDS011;14507;52.418;13.398;2022-11-21T10:57:19;29.30;;;14.02;;
26951;SDS011;14507;52.418;13.398;2022-11-21T11:00:00;32.88;;;14.02;;
26951;SDS011;14507;52.418;13.398;2022-11-21T11:02:36;32.90;;;15.80;;
26951;SDS011;14507;52.418;13.398;2022-11-21T11:05:17;28.08;;;14.05;;
26951;SDS011;14507;52.418;13.398;2022-11-21T11:07:57;23.52;;;13.18;;
26951;SDS011;14507;52.418;13.398;2022-11-21T11:10:33;29.13;;;14.75;;
26951;SDS011;14507;52.418;13.398;2022-11-21T11:16:15;27.25;;;13.20;;
26951;SDS011;14507;52.418;13.398;2022-11-21T11:18:58;27.38;;;14.50;;
26951;SDS011;14507;52.418;13.398;2022-11-21T11:26:34;28.48;;;13.55;;
26951;SDS011;14507;52.418;13.398;2022-11-21T11:34:26;27.25;;;13.65;;
26951;SDS011;14507;52.418;13.398;2022-11-21T11:39:38;29.13;;;14.80;;
26951;SDS011;14507;52.418;13.398;2022-11-21T11:42:11;31.25;;;15.43;;
26951;SDS011;14507;52.418;13.398;2022-11-21T11:45:15;43.83;;;16.02;;
26951;SDS011;14507;52.418;13.398;2022-11-21T11:48:13;55.65;;;23.15;;
26951;SDS011;14507;52.418;13.398;2022-11-21T11:50:50;45.97;;;20.25;;
26951;SDS011;14507;52.418;13.398;2022-11-21T11:53:25;36.40;;;17.00;;
26951;SDS011;14507;52.418;13.398;2022-11-21T11:56:02;33.03;;;17.17;;
26951;SDS011;14507;52.418;13.398;2022-11-21T12:01:28;31.98;;;16.25;;
26951;SDS011;14507;52.418;13.398;2022-11-21T12:04:18;33.40;;;15.68;;
26951;SDS011;14507;52.418;13.398;2022-11-21T12:07:02;33.22;;;16.35;;
26951;SDS011;14507;52.418;13.398;2022-11-21T12:12:03;29.13;;;15.48;;
26951;SDS011;14507;52.418;13.398;2022-11-21T12:18:09;37.38;;;17.10;;
26951;SDS011;14507;52.418;13.398;2022-11-21T12:23:15;39.90;;;19.50;;
26951;SDS011;14507;52.418;13.398;2022-11-21T12:25:55;36.60;;;19.75;;
26951;SDS011;14507;52.418;13.398;2022-11-21T12:28:55;34.78;;;19.08;;
26951;SDS011;14507;52.418;13.398;2022-11-21T12:31:35;27.58;;;13.88;;
26951;SDS011;14507;52.418;13.398;2022-11-21T12:41:47;28.35;;;14.63;;
26951;SDS011;14507;52.418;13.398;2022-11-21T12:47:31;29.42;;;15.43;;
26951;SDS011;14507;52.418;13.398;2022-11-21T12:50:55;30.45;;;14.38;;
26951;SDS011;14507;52.418;13.398;2022-11-21T12:56:43;28.85;;;14.70;;
26951;SDS011;14507;52.418;13.398;2022-11-21T12:59:15;31.55;;;15.45;;
26951;SDS011;14507;52.418;13.398;2022-11-21T13:01:56;31.48;;;16.58;;
26951;SDS011;14507;52.418;13.398;2022-11-21T13:04:37;30.98;;;16.77;;
26951;SDS011;14507;52.418;13.398;2022-11-21T13:07:07;29.83;;;16.35;;
26951;SDS011;14507;52.418;13.398;2022-11-21T13:09:37;32.25;;;17.27;;
26951;SDS011;14507;52.418;13.398;2022-11-21T13:22:59;29.73;;;15.68;;
26951;SDS011;14507;52.418;13.398;2022-11-21T13:28:41;30.42;;;16.83;;
26951;SDS011;14507;52.418;13.398;2022-11-21T13:30:48;28.88;;;16.25;;
26951;SDS011;14507;52.418;13.398;2022-11-21T13:36:01;31.63;;;16.92;;
26951;SDS011;14507;52.418;13.398;2022-11-21T13:47:03;28.02;;;16.00;;
26951;SDS011;14507;52.418;13.398;2022-11-21T14:08:26;29.17;;;17.52;;
26951;SDS011;14507;52.418;13.398;2022-11-21T14:10:54;32.22;;;18.42;;
26951;SDS011;14507;52.418;13.398;2022-11-21T14:13:28;34.30;;;17.58;;
26951;SDS011;14507;52.418;13.398;2022-11-21T14:18:52;31.20;;;17.58;;
26951;SDS011;14507;52.418;13.398;2022-11-21T14:21:19;29.75;;;16.67;;
26951;SDS011;14507;52.418;13.398;2022-11-21T14:23:52;29.13;;;16.50;;
26951;SDS011;14507;52.418;13.398;2022-11-21T14:26:20;29.45;;;16.27;;
26951;SDS011;14507;52.418;13.398;2022-11-21T14:28:46;42.20;;;22.88;;
26951;SDS011;14507;52.418;13.398;2022-11-21T14:31:12;33.85;;;17.98;;
26951;SDS011;14507;52.418;13.398;2022-11-21T14:36:06;31.38;;;18.05;;
26951;SDS011;14507;52.418;13.398;2022-11-21T14:38:53;28.70;;;16.67;;
26951;SDS011;14507;52.418;13.398;2022-11-21T14:46:23;35.63;;;18.60;;
26951;SDS011;14507;52.418;13.398;2022-11-21T14:48:50;35.50;;;18.83;;
26951;SDS011;14507;52.418;13.398;2022-11-21T14:51:18;31.48;;;18.20;;
26951;SDS011;14507;52.418;13.398;2022-11-21T14:53:47;37.67;;;20.27;;
26951;SDS011;14507;52.418;13.398;2022-11-21T14:56:21;35.20;;;20.10;;
26951;SDS011;14507;52.418;13.398;2022-11-21T14:58:50;36.25;;;20.00;;
26951;SDS011;14507;52.418;13.398;2022-11-21T15:01:27;34.92;;;19.88;;
26951;SDS011;14507;52.418;13.398;2022-11-21T15:06:21;35.95;;;20.02;;
26951;SDS011;14507;52.418;13.398;2022-11-21T15:08:47;40.63;;;21.13;;
26951;SDS011;14507;52.418;13.398;2022-11-21T15:11:13;42.55;;;22.35;;
26951;SDS011;14507;52.418;13.398;2022-11-21T15:13:41;45.17;;;22.98;;
26951;SDS011;14507;52.418;13.398;2022-11-21T15:16:14;38.97;;;21.45;;
26951;SDS011;14507;52.418;13.398;2022-11-21T15:18:41;39.83;;;21.33;;
26951;SDS011;14507;52.418;13.398;2022-11-21T15:21:07;35.45;;;19.48;;
26951;SDS011;14507;52.418;13.398;2022-11-21T15:23:40;35.60;;;19.90;;
26951;SDS011;14507;52.418;13.398;2022-11-21T15:28:58;39.00;;;20.30;;
26951;SDS011;14507;52.418;13.398;2022-11-21T15:31:24;35.88;;;19.88;;
26951;SDS011;14507;52.418;13.398;2022-11-21T15:34:04;35.67;;;20.50;;
26951;SDS011;14507;52.418;13.398;2022-11-21T15:36:31;37.42;;;20.48;;
26951;SDS011;14507;52.418;13.398;2022-11-21T15:39:16;35.42;;;20.15;;
26951;SDS011;14507;52.418;13.398;2022-11-21T15:41:46;30.92;;;17.80;;
26951;SDS011;14507;52.418;13.398;2022-11-21T15:46:37;29.55;;;16.33;;
26951;SDS011;14507;52.418;13.398;2022-11-21T15:49:07;27.38;;;15.82;;
26951;SDS011;14507;52.418;13.398;2022-11-21T15:51:47;33.92;;;17.65;;
26951;SDS011;14507;52.418;13.398;2022-11-21T15:54:20;30.60;;;17.77;;
26951;SDS011;14507;52.418;13.398;2022-11-21T15:56:46;34.92;;;19.02;;
26951;SDS011;14507;52.418;13.398;2022-11-21T15:59:13;33.00;;;18.05;;
26951;SDS011;14507;52.418;13.398;2022-11-21T16:01:39;33.83;;;18.70;;
26951;SDS011;14507;52.418;13.398;2022-11-21T16:04:06;32.25;;;17.52;;
26951;SDS011;14507;52.418;13.398;2022-11-21T16:06:34;32.83;;;18.15;;
26951;SDS011;14507;52.418;13.398;2022-11-21T16:09:01;34.38;;;18.65;;
26951;SDS011;14507;52.418;13.398;2022-11-21T16:11:28;34.90;;;18.75;;
26951;SDS011;14507;52.418;13.398;2022-11-21T16:13:56;32.83;;;18.55;;
26951;SDS011;14507;52.418;13.398;2022-11-21T16:18:50;37.10;;;20.92;;
26951;SDS011;14507;52.418;13.398;2022-11-21T16:21:16;36.50;;;20.75;;
26951;SDS011;14507;52.418;13.398;2022-11-21T16:23:42;40.95;;;21.85;;
26951;SDS011;14507;52.418;13.398;2022-11-21T16:26:09;37.13;;;21.75;;
26951;SDS011;14507;52.418;13.398;2022-11-21T16:28:35;38.35;;;20.73;;
26951;SDS011;14507;52.418;13.398;2022-11-21T16:31:01;41.13;;;21.67;;
26951;SDS011;14507;52.418;13.398;2022-11-21T16:33:28;42.27;;;22.03;;
26951;SDS011;14507;52.418;13.398;2022-11-21T16:35:55;38.08;;;20.55;;
26951;SDS011;14507;52.418;13.398;2022-11-21T16:38:24;36.50;;;19.88;;
26951;SDS011;14507;52.418;13.398;2022-11-21T16:40:58;37.67;;;20.60;;
26951;SDS011;14507;52.418;13.398;2022-11-21T16:43:26;42.17;;;21.70;;
26951;SDS011;14507;52.418;13.398;2022-11-21T16:45:53;39.58;;;21.15;;